首页
METAR-TAF:

METAR-TAF

机场 :

特里布万国际机场

加德滿都, 尼泊尔

纬度: 27-42N, 经度: 085-22E, 海拔: 1337米

当前天气观测

该预报发布于5分钟前的05:20 UTC
风速2节,风向多变
温度 19°C
湿度 60%
气压 1019 hPa
能見度: 5000
少量云层高于1500英尺

METAR: VNKT 140520Z VRB02KT 5000 HZ FEW015 19/11 Q1019 NOSIG

时间: 11:10 (05:25 UTC)

预报

该预报发布于6小时和25分钟前的23:00 UTC
预报有效从14日的 00点(UTC)到 14日的 24点(UTC)
风速2节,风向多变
能見度: 4000
少量云层高于1000英尺
轻雾
几率 30%
从 14日的 01点(UTC)到 14日的 02点(UTC)
能見度: 2000
轻雾
成为
从 14日的 03点(UTC)到 14日的 05点(UTC)
风速3节,风向东南
能見度: 6000
少量云层高于1500英尺
成为
从 14日的 07点(UTC)到 14日的 08点(UTC)
风速8节,风向南转西南
能見度: 8000
少量云层高于2000英尺
散云层高于3000英尺
成为
从 14日的 14点(UTC)到 13日的 15点(UTC)
风速3节,风向东转东南
能見度: 6000
少量云层高于1500英尺

TAF: VNKT 132300Z 1400/1424 VRB02KT 4000 BR FEW010 PROB30 1401/1402 2000 BR BECMG 1403/1405 14003KT 6000 FEW015 BECMG 1407/1408 20008KT 8000 FEW020 SCT030 BECMG 1414/1315 11003KT 6000 FEW015

超过4000个机场的气象观测和天气预报(METAR&TAF报告)。

可查询的气象台以黄色和红色小点在地图上表示。

将鼠标移到小点上方,可查看气象台名称。

然后点击查看天气观测和预报。

如需切换地图:点击带黑十字的绿色按钮放大地图;点击带横线的绿色按钮缩小地图;或者点击绿色箭头查看邻近地区的地图。


METAR-TAF: